92NY weather

Bloecher Farm Airport
Strykersville, New York, United States

Public forecast

Using degrees Fahrenheit for public forecast. Weather courtesy of forecast.io.

Closest aviation weather report (METAR) to Bloecher Farm Airport

Closest report is Buffalo Niagara International Airport, 16.4 nm (30.4 km) NW. Retrieved 2020/05/27 04:54 UTC (50 minutes ago):

KBUF 270454Z 20004KT 10SM CLR 24/19 A3009 RMK AO2 SLP185 T02390194 403390194

Closest aviation forecast (TAF) to Bloecher Farm Airport

Closest forecast is Buffalo Niagara International Airport, 16.4 nm (30.4 km) NW. Retrieved 2020-05-27 00:22 UTC (5 hours ago):

TAF KBUF 262320Z 2700/2724 04006KT P6SM FEW060 FM270200 VRB04KT P6SM SKC FM270600 17006KT P6SM SKC FM271400 21006KT P6SM SCT250